Terminal Aerodrome Forecast
Issued by NWS Quad Cities IA IL

Home | Current Version | Previous Version | Text Only | Print | Product List | Glossary On
Versions: 1 2 3 4 5 6 7 8 9 10 11 12 13 14 15 16 17 18 19 20 21
000
FTUS43 KDVN 111855 AAA
TAFDBQ
TAF AMD
KDBQ 111855Z 1119/1218 01010KT 3SM -SN OVC035
      TEMPO 1119/1121 1SM -SHSN BKN025
     FM112100 30012G20KT P6SM OVC025
     FM120000 33023G32KT P6SM -SHSN OVC020
     FM120600 33017G24KT P6SM BKN040=

USA.gov is the U.S. government's official web portal to all federal, state and local government web resources and services.